sensor_id;sensor_type;location;lat;lon;timestamp;P1;durP1;ratioP1;P2;durP2;ratioP2
20609;SDS011;10463;52.378;9.688;2022-10-30T00:00:39;1.80;;;1.57;;
20609;SDS011;10463;52.378;9.688;2022-10-30T00:03:25;2.30;;;1.80;;
20609;SDS011;10463;52.378;9.688;2022-10-30T00:06:10;1.80;;;1.40;;
20609;SDS011;10463;52.378;9.688;2022-10-30T00:08:55;2.07;;;1.70;;
20609;SDS011;10463;52.378;9.688;2022-10-30T00:11:40;2.53;;;1.73;;
20609;SDS011;10463;52.378;9.688;2022-10-30T00:14:25;1.50;;;1.10;;
20609;SDS011;10463;52.378;9.688;2022-10-30T00:17:09;2.03;;;1.47;;
20609;SDS011;10463;52.378;9.688;2022-10-30T00:19:55;2.17;;;1.63;;
20609;SDS011;10463;52.378;9.688;2022-10-30T00:22:40;3.17;;;2.13;;
20609;SDS011;10463;52.378;9.688;2022-10-30T00:25:24;2.37;;;1.80;;
20609;SDS011;10463;52.378;9.688;2022-10-30T00:28:09;2.33;;;1.73;;
20609;SDS011;10463;52.378;9.688;2022-10-30T00:30:57;2.67;;;2.13;;
20609;SDS011;10463;52.378;9.688;2022-10-30T00:33:42;2.63;;;2.10;;
20609;SDS011;10463;52.378;9.688;2022-10-30T00:36:28;2.43;;;2.17;;
20609;SDS011;10463;52.378;9.688;2022-10-30T00:39:13;3.73;;;1.93;;
20609;SDS011;10463;52.378;9.688;2022-10-30T00:41:57;2.67;;;2.00;;
20609;SDS011;10463;52.378;9.688;2022-10-30T00:44:46;3.77;;;1.93;;
20609;SDS011;10463;52.378;9.688;2022-10-30T00:47:34;2.27;;;2.00;;
20609;SDS011;10463;52.378;9.688;2022-10-30T00:50:23;2.20;;;1.60;;
20609;SDS011;10463;52.378;9.688;2022-10-30T00:53:12;4.13;;;2.00;;
20609;SDS011;10463;52.378;9.688;2022-10-30T00:56:03;3.70;;;1.83;;
20609;SDS011;10463;52.378;9.688;2022-10-30T00:58:53;2.77;;;1.70;;
20609;SDS011;10463;52.378;9.688;2022-10-30T01:01:44;3.83;;;1.70;;
20609;SDS011;10463;52.378;9.688;2022-10-30T01:04:30;3.70;;;2.30;;
20609;SDS011;10463;52.378;9.688;2022-10-30T01:07:18;3.80;;;2.70;;
20609;SDS011;10463;52.378;9.688;2022-10-30T01:10:05;3.83;;;2.67;;
20609;SDS011;10463;52.378;9.688;2022-10-30T01:12:51;2.77;;;2.37;;
20609;SDS011;10463;52.378;9.688;2022-10-30T01:15:40;2.73;;;2.37;;
20609;SDS011;10463;52.378;9.688;2022-10-30T01:18:38;5.70;;;2.53;;
20609;SDS011;10463;52.378;9.688;2022-10-30T01:21:35;3.10;;;2.53;;
20609;SDS011;10463;52.378;9.688;2022-10-30T01:24:36;5.57;;;2.73;;
20609;SDS011;10463;52.378;9.688;2022-10-30T01:27:36;5.10;;;3.47;;
20609;SDS011;10463;52.378;9.688;2022-10-30T01:30:35;3.30;;;2.43;;
20609;SDS011;10463;52.378;9.688;2022-10-30T01:33:34;5.30;;;3.03;;
20609;SDS011;10463;52.378;9.688;2022-10-30T01:36:29;3.70;;;2.77;;
20609;SDS011;10463;52.378;9.688;2022-10-30T01:39:21;5.13;;;3.10;;
20609;SDS011;10463;52.378;9.688;2022-10-30T01:42:09;3.23;;;2.60;;
20609;SDS011;10463;52.378;9.688;2022-10-30T01:44:55;3.90;;;2.60;;
20609;SDS011;10463;52.378;9.688;2022-10-30T01:47:44;3.60;;;3.20;;
20609;SDS011;10463;52.378;9.688;2022-10-30T01:50:55;6.43;;;2.90;;
20609;SDS011;10463;52.378;9.688;2022-10-30T01:53:51;4.13;;;2.90;;
20609;SDS011;10463;52.378;9.688;2022-10-30T01:56:44;4.37;;;2.70;;
20609;SDS011;10463;52.378;9.688;2022-10-30T01:59:40;7.73;;;3.20;;
20609;SDS011;10463;52.378;9.688;2022-10-30T02:02:32;6.37;;;3.30;;
20609;SDS011;10463;52.378;9.688;2022-10-30T02:05:20;3.80;;;3.00;;
20609;SDS011;10463;52.378;9.688;2022-10-30T02:08:12;4.60;;;3.30;;
20609;SDS011;10463;52.378;9.688;2022-10-30T02:10:58;4.20;;;3.50;;
20609;SDS011;10463;52.378;9.688;2022-10-30T02:13:53;4.07;;;2.70;;
20609;SDS011;10463;52.378;9.688;2022-10-30T02:16:43;5.07;;;2.93;;
20609;SDS011;10463;52.378;9.688;2022-10-30T02:19:33;6.20;;;3.50;;
20609;SDS011;10463;52.378;9.688;2022-10-30T02:22:21;4.20;;;3.80;;
20609;SDS011;10463;52.378;9.688;2022-10-30T02:25:06;5.40;;;3.30;;
20609;SDS011;10463;52.378;9.688;2022-10-30T02:27:52;7.77;;;3.17;;
20609;SDS011;10463;52.378;9.688;2022-10-30T02:30:36;4.83;;;2.70;;
20609;SDS011;10463;52.378;9.688;2022-10-30T02:33:22;5.57;;;3.30;;
20609;SDS011;10463;52.378;9.688;2022-10-30T02:36:07;5.20;;;3.33;;
20609;SDS011;10463;52.378;9.688;2022-10-30T02:38:54;4.73;;;3.03;;
20609;SDS011;10463;52.378;9.688;2022-10-30T02:41:38;4.40;;;2.73;;
20609;SDS011;10463;52.378;9.688;2022-10-30T02:44:24;3.63;;;2.87;;
20609;SDS011;10463;52.378;9.688;2022-10-30T02:47:08;4.77;;;3.03;;
20609;SDS011;10463;52.378;9.688;2022-10-30T02:49:53;4.17;;;2.70;;
20609;SDS011;10463;52.378;9.688;2022-10-30T02:52:37;4.87;;;3.63;;
20609;SDS011;10463;52.378;9.688;2022-10-30T02:55:24;5.40;;;3.70;;
20609;SDS011;10463;52.378;9.688;2022-10-30T02:58:10;3.13;;;2.77;;
20609;SDS011;10463;52.378;9.688;2022-10-30T03:00:56;4.27;;;3.10;;
20609;SDS011;10463;52.378;9.688;2022-10-30T03:03:48;4.80;;;3.27;;
20609;SDS011;10463;52.378;9.688;2022-10-30T03:06:34;4.60;;;3.33;;
20609;SDS011;10463;52.378;9.688;2022-10-30T03:09:19;4.17;;;3.13;;
20609;SDS011;10463;52.378;9.688;2022-10-30T03:12:05;3.43;;;3.13;;
20609;SDS011;10463;52.378;9.688;2022-10-30T03:14:50;3.20;;;2.90;;
20609;SDS011;10463;52.378;9.688;2022-10-30T03:17:35;4.10;;;2.93;;
20609;SDS011;10463;52.378;9.688;2022-10-30T03:20:19;6.97;;;3.00;;
20609;SDS011;10463;52.378;9.688;2022-10-30T03:23:04;5.00;;;3.90;;
20609;SDS011;10463;52.378;9.688;2022-10-30T03:25:51;8.23;;;3.63;;
20609;SDS011;10463;52.378;9.688;2022-10-30T03:28:38;6.10;;;3.83;;
20609;SDS011;10463;52.378;9.688;2022-10-30T03:31:23;5.00;;;3.80;;
20609;SDS011;10463;52.378;9.688;2022-10-30T03:34:26;4.20;;;3.20;;
20609;SDS011;10463;52.378;9.688;2022-10-30T03:37:11;3.60;;;3.30;;
20609;SDS011;10463;52.378;9.688;2022-10-30T03:39:56;7.40;;;3.50;;
20609;SDS011;10463;52.378;9.688;2022-10-30T03:42:41;6.90;;;3.90;;
20609;SDS011;10463;52.378;9.688;2022-10-30T03:45:27;4.70;;;3.20;;
20609;SDS011;10463;52.378;9.688;2022-10-30T03:48:12;3.73;;;3.43;;
20609;SDS011;10463;52.378;9.688;2022-10-30T03:50:58;5.07;;;2.93;;
20609;SDS011;10463;52.378;9.688;2022-10-30T03:53:44;4.30;;;3.33;;
20609;SDS011;10463;52.378;9.688;2022-10-30T03:56:28;5.70;;;3.70;;
20609;SDS011;10463;52.378;9.688;2022-10-30T03:59:16;5.30;;;2.73;;
20609;SDS011;10463;52.378;9.688;2022-10-30T04:02:11;3.47;;;3.10;;
20609;SDS011;10463;52.378;9.688;2022-10-30T04:04:56;4.50;;;2.87;;
20609;SDS011;10463;52.378;9.688;2022-10-30T04:07:40;4.47;;;3.90;;
20609;SDS011;10463;52.378;9.688;2022-10-30T04:10:26;5.90;;;3.93;;
20609;SDS011;10463;52.378;9.688;2022-10-30T04:13:15;4.87;;;3.27;;
20609;SDS011;10463;52.378;9.688;2022-10-30T04:16:06;4.80;;;3.90;;
20609;SDS011;10463;52.378;9.688;2022-10-30T04:18:53;5.93;;;3.33;;
20609;SDS011;10463;52.378;9.688;2022-10-30T04:21:37;6.10;;;3.77;;
20609;SDS011;10463;52.378;9.688;2022-10-30T04:24:22;3.93;;;3.53;;
20609;SDS011;10463;52.378;9.688;2022-10-30T04:27:11;4.17;;;3.20;;
20609;SDS011;10463;52.378;9.688;2022-10-30T04:29:56;5.40;;;4.00;;
20609;SDS011;10463;52.378;9.688;2022-10-30T04:32:45;4.37;;;3.77;;
20609;SDS011;10463;52.378;9.688;2022-10-30T04:35:33;4.07;;;3.50;;
20609;SDS011;10463;52.378;9.688;2022-10-30T04:38:26;4.30;;;3.67;;
20609;SDS011;10463;52.378;9.688;2022-10-30T04:41:11;6.50;;;3.90;;
20609;SDS011;10463;52.378;9.688;2022-10-30T04:44:10;5.53;;;3.37;;
20609;SDS011;10463;52.378;9.688;2022-10-30T04:46:55;6.07;;;4.17;;
20609;SDS011;10463;52.378;9.688;2022-10-30T04:49:41;5.90;;;4.10;;
20609;SDS011;10463;52.378;9.688;2022-10-30T04:52:27;5.23;;;4.13;;
20609;SDS011;10463;52.378;9.688;2022-10-30T04:55:12;7.33;;;4.00;;
20609;SDS011;10463;52.378;9.688;2022-10-30T04:58:00;7.00;;;3.93;;
20609;SDS011;10463;52.378;9.688;2022-10-30T05:00:51;4.87;;;3.40;;
20609;SDS011;10463;52.378;9.688;2022-10-30T05:03:36;8.93;;;4.80;;
20609;SDS011;10463;52.378;9.688;2022-10-30T05:06:27;7.67;;;3.97;;
20609;SDS011;10463;52.378;9.688;2022-10-30T05:09:15;4.83;;;3.83;;
20609;SDS011;10463;52.378;9.688;2022-10-30T05:12:00;3.67;;;3.10;;
20609;SDS011;10463;52.378;9.688;2022-10-30T05:14:50;4.27;;;3.10;;
20609;SDS011;10463;52.378;9.688;2022-10-30T05:17:36;4.17;;;3.30;;
20609;SDS011;10463;52.378;9.688;2022-10-30T05:20:20;5.50;;;3.37;;
20609;SDS011;10463;52.378;9.688;2022-10-30T05:23:05;4.40;;;3.87;;
20609;SDS011;10463;52.378;9.688;2022-10-30T05:25:51;4.13;;;3.50;;
20609;SDS011;10463;52.378;9.688;2022-10-30T05:28:37;5.87;;;4.33;;
20609;SDS011;10463;52.378;9.688;2022-10-30T05:31:23;4.50;;;3.70;;
20609;SDS011;10463;52.378;9.688;2022-10-30T05:34:22;5.87;;;4.27;;
20609;SDS011;10463;52.378;9.688;2022-10-30T05:37:10;3.73;;;3.43;;
20609;SDS011;10463;52.378;9.688;2022-10-30T05:39:55;5.30;;;4.13;;
20609;SDS011;10463;52.378;9.688;2022-10-30T05:42:45;5.80;;;3.83;;
20609;SDS011;10463;52.378;9.688;2022-10-30T05:45:30;4.10;;;3.70;;
20609;SDS011;10463;52.378;9.688;2022-10-30T05:48:17;4.80;;;3.70;;
20609;SDS011;10463;52.378;9.688;2022-10-30T05:51:03;11.20;;;4.10;;
20609;SDS011;10463;52.378;9.688;2022-10-30T05:53:49;4.70;;;3.50;;
20609;SDS011;10463;52.378;9.688;2022-10-30T05:56:37;10.17;;;4.07;;
20609;SDS011;10463;52.378;9.688;2022-10-30T05:59:23;4.70;;;3.63;;
20609;SDS011;10463;52.378;9.688;2022-10-30T06:02:08;6.60;;;4.00;;
20609;SDS011;10463;52.378;9.688;2022-10-30T06:04:53;5.43;;;3.50;;
20609;SDS011;10463;52.378;9.688;2022-10-30T06:07:38;4.83;;;3.70;;
20609;SDS011;10463;52.378;9.688;2022-10-30T06:10:24;7.83;;;4.60;;
20609;SDS011;10463;52.378;9.688;2022-10-30T06:13:31;5.20;;;4.00;;
20609;SDS011;10463;52.378;9.688;2022-10-30T06:16:43;5.90;;;4.27;;
20609;SDS011;10463;52.378;9.688;2022-10-30T06:19:39;3.93;;;3.53;;
20609;SDS011;10463;52.378;9.688;2022-10-30T06:22:52;5.60;;;3.77;;
20609;SDS011;10463;52.378;9.688;2022-10-30T06:25:38;5.53;;;3.90;;
20609;SDS011;10463;52.378;9.688;2022-10-30T06:28:31;5.27;;;3.70;;
20609;SDS011;10463;52.378;9.688;2022-10-30T06:31:15;5.20;;;3.50;;
20609;SDS011;10463;52.378;9.688;2022-10-30T06:34:01;5.63;;;3.33;;
20609;SDS011;10463;52.378;9.688;2022-10-30T06:36:48;6.10;;;4.23;;
20609;SDS011;10463;52.378;9.688;2022-10-30T06:39:33;6.47;;;4.23;;
20609;SDS011;10463;52.378;9.688;2022-10-30T06:42:31;5.87;;;3.70;;
20609;SDS011;10463;52.378;9.688;2022-10-30T06:45:25;6.70;;;4.70;;
20609;SDS011;10463;52.378;9.688;2022-10-30T06:48:10;7.70;;;4.03;;
20609;SDS011;10463;52.378;9.688;2022-10-30T06:51:05;6.00;;;4.57;;
20609;SDS011;10463;52.378;9.688;2022-10-30T06:53:53;5.33;;;4.20;;
20609;SDS011;10463;52.378;9.688;2022-10-30T06:56:56;4.97;;;3.40;;
20609;SDS011;10463;52.378;9.688;2022-10-30T07:00:11;5.23;;;4.00;;
20609;SDS011;10463;52.378;9.688;2022-10-30T07:03:30;6.07;;;3.80;;
20609;SDS011;10463;52.378;9.688;2022-10-30T07:06:17;8.13;;;4.13;;
20609;SDS011;10463;52.378;9.688;2022-10-30T07:09:02;6.80;;;4.20;;
20609;SDS011;10463;52.378;9.688;2022-10-30T07:11:49;6.20;;;4.20;;
20609;SDS011;10463;52.378;9.688;2022-10-30T07:14:43;5.00;;;4.50;;
20609;SDS011;10463;52.378;9.688;2022-10-30T07:17:33;5.93;;;4.00;;
20609;SDS011;10463;52.378;9.688;2022-10-30T07:20:26;7.03;;;3.90;;
20609;SDS011;10463;52.378;9.688;2022-10-30T07:23:13;6.60;;;4.67;;
20609;SDS011;10463;52.378;9.688;2022-10-30T07:25:58;7.43;;;4.00;;
20609;SDS011;10463;52.378;9.688;2022-10-30T07:28:55;6.40;;;4.00;;
20609;SDS011;10463;52.378;9.688;2022-10-30T07:31:57;6.70;;;4.37;;
20609;SDS011;10463;52.378;9.688;2022-10-30T07:34:53;6.80;;;4.50;;
20609;SDS011;10463;52.378;9.688;2022-10-30T07:37:44;8.80;;;4.20;;
20609;SDS011;10463;52.378;9.688;2022-10-30T07:40:32;4.77;;;4.10;;
20609;SDS011;10463;52.378;9.688;2022-10-30T07:43:31;9.30;;;4.67;;
20609;SDS011;10463;52.378;9.688;2022-10-30T07:46:31;5.00;;;3.47;;
20609;SDS011;10463;52.378;9.688;2022-10-30T07:49:39;5.37;;;3.70;;
20609;SDS011;10463;52.378;9.688;2022-10-30T07:52:25;4.10;;;3.40;;
20609;SDS011;10463;52.378;9.688;2022-10-30T07:55:15;6.90;;;3.57;;
20609;SDS011;10463;52.378;9.688;2022-10-30T07:58:01;9.60;;;3.90;;
20609;SDS011;10463;52.378;9.688;2022-10-30T08:01:18;4.20;;;3.27;;
20609;SDS011;10463;52.378;9.688;2022-10-30T08:04:03;5.63;;;4.10;;
20609;SDS011;10463;52.378;9.688;2022-10-30T08:06:48;5.87;;;3.70;;
20609;SDS011;10463;52.378;9.688;2022-10-30T08:09:33;4.60;;;4.10;;
20609;SDS011;10463;52.378;9.688;2022-10-30T08:12:20;8.60;;;4.20;;
20609;SDS011;10463;52.378;9.688;2022-10-30T08:15:06;5.50;;;4.20;;
20609;SDS011;10463;52.378;9.688;2022-10-30T08:17:52;6.23;;;3.73;;
20609;SDS011;10463;52.378;9.688;2022-10-30T08:20:38;4.17;;;3.60;;
20609;SDS011;10463;52.378;9.688;2022-10-30T08:23:22;4.27;;;3.80;;
20609;SDS011;10463;52.378;9.688;2022-10-30T08:26:07;5.27;;;3.77;;
20609;SDS011;10463;52.378;9.688;2022-10-30T08:28:53;7.50;;;3.63;;
20609;SDS011;10463;52.378;9.688;2022-10-30T08:31:40;5.33;;;3.30;;
20609;SDS011;10463;52.378;9.688;2022-10-30T08:34:40;4.27;;;3.07;;
20609;SDS011;10463;52.378;9.688;2022-10-30T08:37:25;3.93;;;3.30;;
20609;SDS011;10463;52.378;9.688;2022-10-30T08:40:10;3.90;;;3.23;;
20609;SDS011;10463;52.378;9.688;2022-10-30T08:43:07;5.97;;;3.80;;
20609;SDS011;10463;52.378;9.688;2022-10-30T08:45:52;5.87;;;3.90;;
20609;SDS011;10463;52.378;9.688;2022-10-30T08:48:41;5.03;;;3.90;;
20609;SDS011;10463;52.378;9.688;2022-10-30T08:51:26;4.40;;;3.40;;
20609;SDS011;10463;52.378;9.688;2022-10-30T08:54:15;4.60;;;3.30;;
20609;SDS011;10463;52.378;9.688;2022-10-30T08:57:00;6.87;;;3.50;;
20609;SDS011;10463;52.378;9.688;2022-10-30T08:59:47;5.27;;;3.23;;
20609;SDS011;10463;52.378;9.688;2022-10-30T09:02:52;4.37;;;3.67;;
20609;SDS011;10463;52.378;9.688;2022-10-30T09:05:51;4.03;;;3.17;;
20609;SDS011;10463;52.378;9.688;2022-10-30T09:08:54;5.93;;;3.80;;
20609;SDS011;10463;52.378;9.688;2022-10-30T09:12:01;4.93;;;2.60;;
20609;SDS011;10463;52.378;9.688;2022-10-30T09:14:51;3.40;;;2.80;;
20609;SDS011;10463;52.378;9.688;2022-10-30T09:17:36;3.67;;;3.00;;
20609;SDS011;10463;52.378;9.688;2022-10-30T09:20:21;4.00;;;3.60;;
20609;SDS011;10463;52.378;9.688;2022-10-30T09:23:07;3.43;;;3.00;;
20609;SDS011;10463;52.378;9.688;2022-10-30T09:25:55;5.53;;;3.10;;
20609;SDS011;10463;52.378;9.688;2022-10-30T09:29:07;4.13;;;3.00;;
20609;SDS011;10463;52.378;9.688;2022-10-30T09:32:10;4.00;;;3.33;;
20609;SDS011;10463;52.378;9.688;2022-10-30T09:35:07;5.40;;;3.60;;
20609;SDS011;10463;52.378;9.688;2022-10-30T09:37:57;4.70;;;3.13;;
20609;SDS011;10463;52.378;9.688;2022-10-30T09:40:55;4.20;;;3.20;;
20609;SDS011;10463;52.378;9.688;2022-10-30T09:44:09;8.30;;;3.73;;
20609;SDS011;10463;52.378;9.688;2022-10-30T09:47:11;4.40;;;3.47;;
20609;SDS011;10463;52.378;9.688;2022-10-30T09:50:15;7.33;;;4.00;;
20609;SDS011;10463;52.378;9.688;2022-10-30T09:53:13;3.37;;;2.93;;
20609;SDS011;10463;52.378;9.688;2022-10-30T09:56:06;3.97;;;3.23;;
20609;SDS011;10463;52.378;9.688;2022-10-30T09:59:02;5.13;;;3.17;;
20609;SDS011;10463;52.378;9.688;2022-10-30T10:02:02;5.33;;;3.50;;
20609;SDS011;10463;52.378;9.688;2022-10-30T10:05:01;4.20;;;3.43;;
20609;SDS011;10463;52.378;9.688;2022-10-30T10:08:13;4.47;;;3.20;;
20609;SDS011;10463;52.378;9.688;2022-10-30T10:11:23;5.83;;;3.63;;
20609;SDS011;10463;52.378;9.688;2022-10-30T10:14:14;4.60;;;3.13;;
20609;SDS011;10463;52.378;9.688;2022-10-30T10:17:02;3.83;;;3.40;;
20609;SDS011;10463;52.378;9.688;2022-10-30T10:19:54;4.00;;;3.20;;
20609;SDS011;10463;52.378;9.688;2022-10-30T10:22:46;4.90;;;3.37;;
20609;SDS011;10463;52.378;9.688;2022-10-30T10:25:33;4.90;;;3.40;;
20609;SDS011;10463;52.378;9.688;2022-10-30T10:28:36;4.10;;;3.37;;
20609;SDS011;10463;52.378;9.688;2022-10-30T10:31:37;4.00;;;3.23;;
20609;SDS011;10463;52.378;9.688;2022-10-30T10:34:35;5.30;;;3.60;;
20609;SDS011;10463;52.378;9.688;2022-10-30T10:37:33;5.63;;;3.33;;
20609;SDS011;10463;52.378;9.688;2022-10-30T10:40:31;7.80;;;2.87;;
20609;SDS011;10463;52.378;9.688;2022-10-30T10:43:33;4.53;;;3.03;;
20609;SDS011;10463;52.378;9.688;2022-10-30T10:46:43;5.70;;;3.97;;
20609;SDS011;10463;52.378;9.688;2022-10-30T10:49:44;5.07;;;3.60;;
20609;SDS011;10463;52.378;9.688;2022-10-30T10:52:41;5.43;;;3.43;;
20609;SDS011;10463;52.378;9.688;2022-10-30T10:55:31;3.67;;;2.90;;
20609;SDS011;10463;52.378;9.688;2022-10-30T10:58:25;3.93;;;3.33;;
20609;SDS011;10463;52.378;9.688;2022-10-30T11:01:18;4.07;;;3.07;;
20609;SDS011;10463;52.378;9.688;2022-10-30T11:04:10;4.00;;;2.83;;
20609;SDS011;10463;52.378;9.688;2022-10-30T11:07:05;4.17;;;3.07;;
20609;SDS011;10463;52.378;9.688;2022-10-30T11:10:11;4.60;;;3.37;;
20609;SDS011;10463;52.378;9.688;2022-10-30T11:12:58;10.70;;;3.37;;
20609;SDS011;10463;52.378;9.688;2022-10-30T11:15:51;4.20;;;3.50;;
20609;SDS011;10463;52.378;9.688;2022-10-30T11:18:42;4.07;;;3.23;;
20609;SDS011;10463;52.378;9.688;2022-10-30T11:21:30;4.57;;;3.33;;
20609;SDS011;10463;52.378;9.688;2022-10-30T11:24:26;5.90;;;3.47;;
20609;SDS011;10463;52.378;9.688;2022-10-30T11:27:17;5.70;;;3.50;;
20609;SDS011;10463;52.378;9.688;2022-10-30T11:30:16;6.30;;;3.60;;
20609;SDS011;10463;52.378;9.688;2022-10-30T11:33:20;4.27;;;3.77;;
20609;SDS011;10463;52.378;9.688;2022-10-30T11:36:09;5.00;;;3.17;;
20609;SDS011;10463;52.378;9.688;2022-10-30T11:38:57;5.13;;;3.93;;
20609;SDS011;10463;52.378;9.688;2022-10-30T11:41:55;5.63;;;3.90;;
20609;SDS011;10463;52.378;9.688;2022-10-30T11:44:47;6.10;;;4.40;;
20609;SDS011;10463;52.378;9.688;2022-10-30T11:47:34;5.27;;;3.57;;
20609;SDS011;10463;52.378;9.688;2022-10-30T11:50:21;7.63;;;4.37;;
20609;SDS011;10463;52.378;9.688;2022-10-30T11:53:12;5.87;;;4.47;;
20609;SDS011;10463;52.378;9.688;2022-10-30T11:56:03;4.63;;;4.07;;
20609;SDS011;10463;52.378;9.688;2022-10-30T11:58:58;6.80;;;3.43;;
20609;SDS011;10463;52.378;9.688;2022-10-30T12:01:56;7.20;;;4.17;;
20609;SDS011;10463;52.378;9.688;2022-10-30T12:04:43;5.30;;;4.27;;
20609;SDS011;10463;52.378;9.688;2022-10-30T12:07:29;7.90;;;5.80;;
20609;SDS011;10463;52.378;9.688;2022-10-30T12:10:24;6.07;;;4.93;;
20609;SDS011;10463;52.378;9.688;2022-10-30T12:13:12;5.90;;;4.93;;
20609;SDS011;10463;52.378;9.688;2022-10-30T12:16:07;6.27;;;3.90;;
20609;SDS011;10463;52.378;9.688;2022-10-30T12:19:01;4.83;;;3.40;;
20609;SDS011;10463;52.378;9.688;2022-10-30T12:21:49;5.67;;;4.23;;
20609;SDS011;10463;52.378;9.688;2022-10-30T12:24:41;7.60;;;4.73;;
20609;SDS011;10463;52.378;9.688;2022-10-30T12:27:29;4.93;;;4.27;;
20609;SDS011;10463;52.378;9.688;2022-10-30T12:30:18;6.20;;;5.00;;
20609;SDS011;10463;52.378;9.688;2022-10-30T12:33:06;6.70;;;4.27;;
20609;SDS011;10463;52.378;9.688;2022-10-30T12:35:59;10.60;;;4.30;;
20609;SDS011;10463;52.378;9.688;2022-10-30T12:38:47;7.80;;;4.40;;
20609;SDS011;10463;52.378;9.688;2022-10-30T12:41:38;7.70;;;4.37;;
20609;SDS011;10463;52.378;9.688;2022-10-30T12:44:29;4.63;;;4.13;;
20609;SDS011;10463;52.378;9.688;2022-10-30T12:47:20;7.47;;;4.40;;
20609;SDS011;10463;52.378;9.688;2022-10-30T12:50:17;6.47;;;4.17;;
20609;SDS011;10463;52.378;9.688;2022-10-30T12:53:06;6.53;;;3.90;;
20609;SDS011;10463;52.378;9.688;2022-10-30T12:56:05;8.10;;;3.97;;
20609;SDS011;10463;52.378;9.688;2022-10-30T12:58:57;6.93;;;4.90;;
20609;SDS011;10463;52.378;9.688;2022-10-30T13:02:11;12.40;;;6.13;;
20609;SDS011;10463;52.378;9.688;2022-10-30T13:05:03;7.80;;;4.47;;
20609;SDS011;10463;52.378;9.688;2022-10-30T13:08:01;6.93;;;4.67;;
20609;SDS011;10463;52.378;9.688;2022-10-30T13:10:55;5.43;;;3.93;;
20609;SDS011;10463;52.378;9.688;2022-10-30T13:13:47;5.47;;;4.20;;
20609;SDS011;10463;52.378;9.688;2022-10-30T13:16:34;6.00;;;4.27;;
20609;SDS011;10463;52.378;9.688;2022-10-30T13:19:20;5.23;;;4.13;;
20609;SDS011;10463;52.378;9.688;2022-10-30T13:22:10;5.27;;;4.27;;
20609;SDS011;10463;52.378;9.688;2022-10-30T13:25:03;7.23;;;3.83;;
20609;SDS011;10463;52.378;9.688;2022-10-30T13:27:59;6.27;;;4.50;;
20609;SDS011;10463;52.378;9.688;2022-10-30T13:30:56;6.47;;;4.00;;
20609;SDS011;10463;52.378;9.688;2022-10-30T13:33:46;8.73;;;4.57;;
20609;SDS011;10463;52.378;9.688;2022-10-30T13:36:43;8.03;;;4.53;;
20609;SDS011;10463;52.378;9.688;2022-10-30T13:39:35;6.80;;;4.43;;
20609;SDS011;10463;52.378;9.688;2022-10-30T13:42:34;9.10;;;4.20;;
20609;SDS011;10463;52.378;9.688;2022-10-30T13:45:38;7.63;;;3.80;;
20609;SDS011;10463;52.378;9.688;2022-10-30T13:48:45;11.83;;;4.30;;
20609;SDS011;10463;52.378;9.688;2022-10-30T13:51:39;4.43;;;3.60;;
20609;SDS011;10463;52.378;9.688;2022-10-30T13:54:29;8.43;;;4.83;;
20609;SDS011;10463;52.378;9.688;2022-10-30T13:57:18;11.30;;;4.53;;
20609;SDS011;10463;52.378;9.688;2022-10-30T14:00:14;5.70;;;3.90;;
20609;SDS011;10463;52.378;9.688;2022-10-30T14:03:26;12.63;;;4.67;;
20609;SDS011;10463;52.378;9.688;2022-10-30T14:06:25;9.03;;;4.70;;
20609;SDS011;10463;52.378;9.688;2022-10-30T14:09:23;8.47;;;4.00;;
20609;SDS011;10463;52.378;9.688;2022-10-30T14:12:41;9.67;;;4.80;;
20609;SDS011;10463;52.378;9.688;2022-10-30T14:15:31;7.57;;;4.60;;
20609;SDS011;10463;52.378;9.688;2022-10-30T14:18:28;11.53;;;4.30;;
20609;SDS011;10463;52.378;9.688;2022-10-30T14:21:51;7.27;;;4.90;;
20609;SDS011;10463;52.378;9.688;2022-10-30T14:24:41;13.13;;;5.10;;
20609;SDS011;10463;52.378;9.688;2022-10-30T14:27:29;8.57;;;5.00;;
20609;SDS011;10463;52.378;9.688;2022-10-30T14:30:16;7.03;;;4.57;;
20609;SDS011;10463;52.378;9.688;2022-10-30T14:33:02;8.37;;;4.73;;
20609;SDS011;10463;52.378;9.688;2022-10-30T14:35:48;4.80;;;3.63;;
20609;SDS011;10463;52.378;9.688;2022-10-30T14:38:59;6.10;;;4.60;;
20609;SDS011;10463;52.378;9.688;2022-10-30T14:41:47;6.20;;;3.93;;
20609;SDS011;10463;52.378;9.688;2022-10-30T14:44:56;9.50;;;4.40;;
20609;SDS011;10463;52.378;9.688;2022-10-30T14:47:56;7.77;;;3.73;;
20609;SDS011;10463;52.378;9.688;2022-10-30T14:50:55;6.90;;;5.17;;
20609;SDS011;10463;52.378;9.688;2022-10-30T14:53:53;8.30;;;5.10;;
20609;SDS011;10463;52.378;9.688;2022-10-30T14:56:45;8.33;;;5.43;;
20609;SDS011;10463;52.378;9.688;2022-10-30T14:59:32;7.00;;;5.43;;
20609;SDS011;10463;52.378;9.688;2022-10-30T15:02:23;8.27;;;5.40;;
20609;SDS011;10463;52.378;9.688;2022-10-30T15:05:28;8.63;;;5.50;;
20609;SDS011;10463;52.378;9.688;2022-10-30T15:08:41;11.50;;;6.17;;
20609;SDS011;10463;52.378;9.688;2022-10-30T15:15:12;8.00;;;6.73;;
20609;SDS011;10463;52.378;9.688;2022-10-30T15:18:01;7.67;;;5.53;;
20609;SDS011;10463;52.378;9.688;2022-10-30T15:20:52;5.90;;;4.90;;
20609;SDS011;10463;52.378;9.688;2022-10-30T15:23:38;12.87;;;5.60;;
20609;SDS011;10463;52.378;9.688;2022-10-30T15:26:30;8.27;;;5.00;;
20609;SDS011;10463;52.378;9.688;2022-10-30T15:29:20;11.63;;;6.13;;
20609;SDS011;10463;52.378;9.688;2022-10-30T15:32:14;7.43;;;5.50;;
20609;SDS011;10463;52.378;9.688;2022-10-30T15:35:02;9.10;;;5.80;;
20609;SDS011;10463;52.378;9.688;2022-10-30T15:38:04;10.60;;;6.03;;
20609;SDS011;10463;52.378;9.688;2022-10-30T15:40:50;6.80;;;5.10;;
20609;SDS011;10463;52.378;9.688;2022-10-30T15:43:42;8.83;;;5.07;;
20609;SDS011;10463;52.378;9.688;2022-10-30T15:46:28;6.17;;;4.40;;
20609;SDS011;10463;52.378;9.688;2022-10-30T15:49:14;7.57;;;4.87;;
20609;SDS011;10463;52.378;9.688;2022-10-30T15:52:10;7.53;;;4.73;;
20609;SDS011;10463;52.378;9.688;2022-10-30T15:54:58;7.43;;;5.00;;
20609;SDS011;10463;52.378;9.688;2022-10-30T15:57:46;6.83;;;4.93;;
20609;SDS011;10463;52.378;9.688;2022-10-30T16:00:36;7.23;;;5.33;;
20609;SDS011;10463;52.378;9.688;2022-10-30T16:03:22;8.23;;;6.83;;
20609;SDS011;10463;52.378;9.688;2022-10-30T16:06:14;7.60;;;6.80;;
20609;SDS011;10463;52.378;9.688;2022-10-30T16:09:02;8.80;;;5.80;;
20609;SDS011;10463;52.378;9.688;2022-10-30T16:11:47;7.50;;;5.70;;
20609;SDS011;10463;52.378;9.688;2022-10-30T16:14:35;8.90;;;6.63;;
20609;SDS011;10463;52.378;9.688;2022-10-30T16:17:21;9.33;;;6.40;;
20609;SDS011;10463;52.378;9.688;2022-10-30T16:20:08;9.10;;;6.37;;
20609;SDS011;10463;52.378;9.688;2022-10-30T16:22:54;6.43;;;5.27;;
20609;SDS011;10463;52.378;9.688;2022-10-30T16:25:39;8.00;;;6.87;;
20609;SDS011;10463;52.378;9.688;2022-10-30T16:28:27;6.80;;;5.73;;
20609;SDS011;10463;52.378;9.688;2022-10-30T16:31:12;5.23;;;4.70;;
20609;SDS011;10463;52.378;9.688;2022-10-30T16:34:00;6.37;;;5.77;;
20609;SDS011;10463;52.378;9.688;2022-10-30T16:36:47;6.70;;;5.37;;
20609;SDS011;10463;52.378;9.688;2022-10-30T16:39:33;6.23;;;5.13;;
20609;SDS011;10463;52.378;9.688;2022-10-30T16:42:19;6.63;;;5.13;;
20609;SDS011;10463;52.378;9.688;2022-10-30T16:48:33;4.70;;;4.13;;
20609;SDS011;10463;52.378;9.688;2022-10-30T16:51:20;4.90;;;4.30;;
20609;SDS011;10463;52.378;9.688;2022-10-30T16:54:18;5.50;;;4.63;;
20609;SDS011;10463;52.378;9.688;2022-10-30T16:57:12;5.13;;;4.57;;
20609;SDS011;10463;52.378;9.688;2022-10-30T16:59:59;4.47;;;4.07;;
20609;SDS011;10463;52.378;9.688;2022-10-30T17:02:46;6.00;;;4.57;;
20609;SDS011;10463;52.378;9.688;2022-10-30T17:05:33;5.00;;;4.23;;
20609;SDS011;10463;52.378;9.688;2022-10-30T17:08:41;4.60;;;4.20;;
20609;SDS011;10463;52.378;9.688;2022-10-30T17:11:35;5.23;;;4.10;;
20609;SDS011;10463;52.378;9.688;2022-10-30T17:14:22;4.40;;;4.00;;
20609;SDS011;10463;52.378;9.688;2022-10-30T17:17:19;5.17;;;4.17;;
20609;SDS011;10463;52.378;9.688;2022-10-30T17:20:13;4.57;;;4.10;;